createdAt,value
2022-10-23T00:02:40.730Z,47.40
2022-10-23T00:05:46.472Z,47.50
2022-10-23T00:08:58.499Z,47.50
2022-10-23T00:12:10.523Z,47.50
2022-10-23T00:15:28.554Z,47.50
2022-10-23T00:18:41.601Z,47.40
2022-10-23T00:21:52.601Z,47.40
2022-10-23T00:24:58.631Z,47.40
2022-10-23T00:28:10.652Z,47.40
2022-10-23T00:31:16.679Z,47.40
2022-10-23T00:34:28.713Z,47.40
2022-10-23T00:37:34.736Z,47.40
2022-10-23T00:40:52.762Z,47.40
2022-10-23T00:44:22.472Z,48.00
2022-10-23T00:47:34.808Z,47.40
2022-10-23T00:50:52.837Z,47.40
2022-10-23T00:54:23.542Z,47.40
2022-10-23T00:57:40.894Z,47.40
2022-10-23T01:00:58.947Z,47.40
2022-10-23T01:04:10.947Z,47.40
2022-10-23T01:07:28.971Z,47.40
2022-10-23T01:10:46.998Z,47.40
2022-10-23T01:13:59.079Z,47.40
2022-10-23T01:17:17.053Z,47.50
2022-10-23T01:20:35.088Z,47.50
2022-10-23T01:24:11.113Z,47.50
2022-10-23T01:27:47.140Z,47.50
2022-10-23T01:31:05.169Z,47.40
2022-10-23T01:34:17.193Z,47.50
2022-10-23T01:37:47.221Z,47.50
2022-10-23T01:41:10.944Z,47.50
2022-10-23T01:44:28.971Z,47.50
2022-10-23T01:47:35.306Z,47.40
2022-10-23T01:50:47.025Z,47.40
2022-10-23T01:53:53.357Z,47.40
2022-10-23T01:57:05.087Z,47.40
2022-10-23T02:00:23.421Z,47.40
2022-10-23T02:03:35.146Z,47.50
2022-10-23T02:06:41.481Z,47.50
2022-10-23T02:10:10.102Z,47.50
2022-10-23T02:13:23.417Z,47.40
2022-10-23T02:17:04.153Z,47.40
2022-10-23T02:20:40.228Z,47.50
2022-10-23T02:24:10.214Z,47.40
2022-10-23T02:27:46.244Z,47.40
2022-10-23T02:31:22.280Z,47.40
2022-10-23T02:34:58.309Z,47.40
2022-10-23T02:38:28.337Z,47.40
2022-10-23T02:42:10.371Z,47.40
2022-10-23T02:45:52.407Z,47.40
2022-10-23T02:49:28.434Z,47.40
2022-10-23T02:53:10.474Z,47.40
2022-10-23T02:56:40.502Z,47.40
2022-10-23T03:00:16.539Z,47.40
2022-10-23T03:03:46.563Z,47.40
2022-10-23T03:07:16.594Z,47.50
2022-10-23T03:10:52.626Z,47.40
2022-10-23T03:13:57.144Z,48.10
2022-10-23T03:17:06.001Z,47.50
2022-10-23T03:20:10.704Z,47.50
2022-10-23T03:23:16.731Z,47.50
2022-10-23T03:26:24.082Z,47.50
2022-10-23T03:29:28.787Z,47.50
2022-10-23T03:32:28.811Z,47.50
2022-10-23T03:35:28.838Z,47.50
2022-10-23T03:38:28.867Z,47.50
2022-10-23T03:41:34.892Z,47.50
2022-10-23T03:44:34.921Z,47.50
2022-10-23T03:47:38.435Z,47.50
2022-10-23T03:50:42.283Z,47.50
2022-10-23T03:53:48.310Z,47.50
2022-10-23T03:56:57.628Z,47.50
2022-10-23T04:00:02.539Z,47.50
2022-10-23T04:03:06.391Z,47.50
2022-10-23T04:06:12.416Z,47.50
2022-10-23T04:09:17.134Z,47.50
2022-10-23T04:12:26.648Z,47.50
2022-10-23T04:15:30.512Z,47.60
2022-10-23T04:18:36.522Z,47.60
2022-10-23T04:21:41.250Z,47.60
2022-10-23T04:24:47.279Z,47.60
2022-10-23T04:27:54.607Z,47.60
2022-10-23T04:31:00.641Z,47.60
2022-10-23T04:37:11.383Z,47.60
2022-10-23T04:40:14.923Z,47.60
2022-10-23T04:43:24.763Z,47.60
2022-10-23T04:46:29.466Z,47.60
2022-10-23T04:49:26.996Z,47.60
2022-10-23T04:52:30.855Z,47.60
2022-10-23T04:55:36.882Z,47.60
2022-10-23T04:58:51.071Z,47.60
2022-10-23T05:01:57.161Z,47.60
2022-10-23T05:05:06.978Z,47.60
2022-10-23T05:08:17.856Z,47.60
2022-10-23T05:11:21.176Z,47.60
2022-10-23T05:14:31.071Z,47.60
2022-10-23T05:17:37.101Z,47.60
2022-10-23T05:20:43.136Z,47.60
2022-10-23T05:23:49.245Z,47.60
2022-10-23T05:26:55.197Z,47.60
2022-10-23T05:30:05.860Z,47.60
2022-10-23T05:33:09.354Z,47.60
2022-10-23T05:36:13.288Z,47.60
2022-10-23T05:39:19.318Z,47.50
2022-10-23T05:42:23.984Z,47.50
2022-10-23T05:46:01.378Z,47.60
2022-10-23T05:49:31.410Z,47.50
2022-10-23T05:52:57.535Z,47.60
2022-10-23T05:56:19.464Z,47.60
2022-10-23T05:59:55.497Z,47.50
2022-10-23T06:03:37.532Z,47.60
2022-10-23T06:07:13.564Z,47.60
2022-10-23T06:10:43.589Z,47.50
2022-10-23T06:14:11.308Z,47.60
2022-10-23T06:17:15.734Z,47.50
2022-10-23T06:20:27.953Z,48.10
2022-10-23T06:23:33.786Z,47.50
2022-10-23T06:26:39.820Z,47.50
2022-10-23T06:29:45.847Z,47.60
2022-10-23T06:32:51.875Z,47.60
2022-10-23T06:35:59.498Z,47.50
2022-10-23T06:39:05.524Z,47.50
2022-10-23T06:42:09.960Z,47.50
2022-10-23T06:45:34.004Z,47.50
2022-10-23T06:49:04.025Z,47.50
2022-10-23T06:52:47.058Z,47.50
2022-10-23T06:56:16.082Z,47.50
2022-10-23T06:59:46.108Z,47.40
2022-10-23T07:03:16.134Z,47.40
2022-10-23T07:06:46.171Z,47.40
2022-10-23T07:10:22.196Z,47.40
2022-10-23T07:18:17.868Z,47.30
2022-10-23T07:21:47.898Z,47.30
2022-10-23T07:25:29.927Z,47.20
2022-10-23T07:28:37.940Z,47.20
2022-10-23T07:44:45.468Z,47.20
2022-10-23T07:48:15.315Z,47.20
2022-10-23T07:51:49.028Z,47.20
2022-10-23T07:55:24.184Z,47.10
2022-10-23T07:58:54.214Z,47.10
2022-10-23T08:02:42.478Z,47.10
2022-10-23T08:05:57.396Z,47.10
2022-10-23T08:09:09.116Z,47.10
2022-10-23T08:12:15.453Z,47.20
2022-10-23T08:15:27.169Z,47.00
2022-10-23T08:18:39.505Z,47.00
2022-10-23T08:21:44.946Z,47.00
2022-10-23T08:24:51.563Z,46.90
2022-10-23T08:28:05.533Z,46.90
2022-10-23T08:31:15.611Z,46.90
2022-10-23T08:34:27.053Z,46.80
2022-10-23T08:37:33.081Z,46.80
2022-10-23T08:40:39.109Z,46.80
2022-10-23T08:43:51.732Z,46.70
2022-10-23T08:46:57.164Z,46.70
2022-10-23T08:50:15.837Z,46.80
2022-10-23T08:53:27.212Z,46.70
2022-10-23T08:56:39.241Z,46.70
2022-10-23T08:59:45.270Z,46.70
2022-10-23T09:02:51.892Z,46.60
2022-10-23T09:06:01.519Z,46.60
2022-10-23T09:09:07.545Z,46.50
2022-10-23T09:12:13.577Z,46.50
2022-10-23T09:15:31.607Z,46.50
2022-10-23T09:18:34.040Z,46.40
2022-10-23T09:21:37.666Z,46.50
2022-10-23T09:24:37.696Z,46.40
2022-10-23T09:27:37.730Z,46.40
2022-10-23T09:30:46.162Z,46.40
2022-10-23T09:33:43.787Z,46.90
2022-10-23T09:36:46.298Z,46.30
2022-10-23T09:39:49.840Z,46.30
2022-10-23T09:42:46.289Z,46.30
2022-10-23T09:45:52.319Z,46.20
2022-10-23T09:48:52.355Z,46.20
2022-10-23T09:51:52.380Z,46.20
2022-10-23T09:54:52.411Z,46.20
2022-10-23T09:57:56.012Z,46.20
2022-10-23T10:01:04.547Z,46.20
2022-10-23T10:04:08.073Z,46.10
2022-10-23T10:07:16.533Z,46.10
2022-10-23T10:10:16.560Z,46.00
2022-10-23T10:13:16.581Z,46.10
2022-10-23T10:16:28.622Z,46.00
2022-10-23T10:19:46.051Z,46.00
2022-10-23T10:23:04.669Z,46.00
2022-10-23T10:26:22.168Z,46.00
2022-10-23T10:29:34.730Z,46.00
2022-10-23T10:32:52.215Z,46.00
2022-10-23T10:36:22.848Z,46.00
2022-10-23T10:39:40.222Z,45.90
2022-10-23T10:43:10.861Z,45.90
2022-10-23T10:46:28.279Z,45.90
2022-10-23T10:49:32.495Z,45.80
2022-10-23T10:52:28.951Z,45.80
2022-10-23T10:55:34.980Z,45.80
2022-10-23T10:58:40.382Z,45.80
2022-10-23T11:01:41.171Z,45.80
2022-10-23T11:04:47.072Z,45.80
2022-10-23T11:07:47.106Z,45.80
2022-10-23T11:10:46.485Z,45.80
2022-10-23T11:13:47.156Z,45.80
2022-10-23T11:16:46.541Z,45.90
2022-10-23T11:19:44.780Z,45.80
2022-10-23T11:22:47.235Z,45.80
2022-10-23T11:26:08.836Z,45.80
2022-10-23T11:29:28.646Z,45.80
2022-10-23T11:32:38.908Z,45.80
2022-10-23T11:35:52.710Z,45.80
2022-10-23T11:38:50.951Z,45.80
2022-10-23T11:41:50.977Z,45.80
2022-10-23T11:45:07.346Z,45.80
2022-10-23T11:48:19.380Z,45.70
2022-10-23T11:51:19.407Z,45.70
2022-10-23T11:54:45.101Z,45.70
2022-10-23T11:57:55.474Z,45.60
2022-10-23T12:00:57.195Z,45.60
2022-10-23T12:04:31.543Z,45.70
2022-10-23T12:08:03.228Z,45.70
2022-10-23T12:11:31.620Z,45.70
2022-10-23T12:15:19.653Z,45.60
2022-10-23T12:18:55.690Z,45.70
2022-10-23T12:22:25.754Z,45.60
2022-10-23T12:26:01.776Z,45.60
2022-10-23T12:29:37.798Z,45.60
2022-10-23T12:33:31.835Z,45.60
2022-10-23T12:37:12.550Z,45.70
2022-10-23T12:40:19.903Z,45.60
2022-10-23T12:43:43.939Z,45.70
2022-10-23T12:47:00.987Z,45.70
2022-10-23T12:50:08.003Z,45.60
2022-10-23T12:53:21.666Z,45.60
2022-10-23T12:56:26.078Z,46.20
2022-10-23T12:59:33.710Z,45.60
2022-10-23T13:02:44.171Z,45.60
2022-10-23T13:06:06.832Z,45.60
2022-10-23T13:09:42.869Z,45.50
2022-10-23T13:13:12.903Z,45.50
2022-10-23T13:16:42.926Z,45.50
2022-10-23T13:20:12.954Z,45.50
2022-10-23T13:23:48.991Z,45.40
2022-10-23T13:27:25.015Z,45.50
2022-10-23T13:31:13.051Z,45.50
2022-10-23T13:35:10.231Z,45.50
2022-10-23T13:38:49.113Z,45.50
2022-10-23T13:42:25.144Z,45.60
2022-10-23T13:45:55.193Z,45.50
2022-10-23T13:49:25.205Z,45.50
2022-10-23T13:52:55.233Z,45.60
2022-10-23T13:56:25.266Z,45.60
2022-10-23T14:00:01.296Z,45.60
2022-10-23T14:03:31.324Z,45.60
2022-10-23T14:07:01.370Z,45.60
2022-10-23T14:10:31.393Z,46.30
2022-10-23T14:14:01.422Z,45.70
2022-10-23T14:17:37.453Z,45.70
2022-10-23T14:21:07.484Z,45.70
2022-10-23T14:24:20.880Z,45.80
2022-10-23T14:27:31.535Z,45.70
2022-10-23T14:30:37.560Z,45.80
2022-10-23T14:33:49.673Z,45.70
2022-10-23T14:37:07.716Z,46.40
2022-10-23T14:40:06.204Z,45.80
2022-10-23T14:43:19.666Z,45.80
2022-10-23T14:46:25.694Z,45.80
2022-10-23T14:49:54.285Z,45.90
2022-10-23T14:53:24.309Z,45.80
2022-10-23T14:56:54.340Z,45.80
2022-10-23T15:00:24.375Z,45.80
2022-10-23T15:03:54.405Z,45.80
2022-10-23T15:07:05.629Z,45.80
2022-10-23T15:10:24.474Z,45.80
2022-10-23T15:13:30.502Z,45.80
2022-10-23T15:16:36.532Z,45.90
2022-10-23T15:19:33.848Z,45.90
2022-10-23T15:22:34.613Z,45.90
2022-10-23T15:25:28.642Z,46.00
2022-10-23T15:28:26.051Z,46.00
2022-10-23T15:31:21.943Z,45.90
2022-10-23T15:34:20.101Z,46.00
2022-10-23T15:37:15.995Z,46.00
2022-10-23T15:40:16.774Z,46.00
2022-10-23T15:43:13.129Z,46.00
2022-10-23T15:46:08.204Z,46.00
2022-10-23T15:49:04.104Z,46.00
2022-10-23T15:52:02.324Z,46.00
2022-10-23T15:54:58.155Z,46.00
2022-10-23T15:57:58.952Z,46.00
2022-10-23T16:00:52.976Z,46.00
2022-10-23T16:03:50.359Z,46.00
2022-10-23T16:06:46.256Z,46.00
2022-10-23T16:09:44.434Z,46.60
2022-10-23T16:12:40.328Z,46.00
2022-10-23T16:15:41.104Z,46.00
2022-10-23T16:18:35.135Z,46.00
2022-10-23T16:21:38.552Z,46.10
2022-10-23T16:24:34.411Z,46.10
2022-10-23T16:27:37.146Z,46.10
2022-10-23T16:30:38.626Z,46.10
2022-10-23T16:33:32.649Z,46.10
2022-10-23T16:36:37.220Z,46.20
2022-10-23T16:39:47.361Z,46.20
2022-10-23T16:42:55.277Z,46.20
2022-10-23T16:46:11.428Z,46.20
2022-10-23T16:49:19.340Z,46.20
2022-10-23T16:52:34.647Z,46.20
2022-10-23T16:55:43.404Z,46.20
2022-10-23T17:02:13.583Z,46.20
2022-10-23T17:05:28.760Z,46.30
2022-10-23T17:08:25.974Z,46.30
2022-10-23T17:11:29.692Z,46.30
2022-10-23T17:14:29.719Z,46.30
2022-10-23T17:17:29.748Z,46.30
2022-10-23T17:20:25.603Z,46.30
2022-10-23T17:23:31.972Z,46.30
2022-10-23T17:26:31.650Z,46.30
2022-10-23T17:29:31.981Z,46.30
2022-10-23T17:32:35.899Z,46.30
2022-10-23T17:35:35.928Z,46.30
2022-10-23T17:38:31.746Z,46.30
2022-10-23T17:41:29.981Z,46.40
2022-10-23T17:44:25.792Z,46.30
2022-10-23T17:47:30.042Z,46.40
2022-10-23T17:50:31.846Z,46.40
2022-10-23T17:53:36.104Z,46.40
2022-10-23T17:56:36.136Z,46.30
2022-10-23T17:59:36.163Z,46.40
2022-10-23T18:02:31.985Z,46.40
2022-10-23T18:05:36.271Z,46.40
2022-10-23T18:08:37.999Z,47.00
2022-10-23T18:11:45.280Z,46.40
2022-10-23T18:14:44.048Z,46.40
2022-10-23T18:17:42.718Z,46.40
2022-10-23T18:20:44.102Z,46.40
2022-10-23T18:23:56.436Z,46.40
2022-10-23T18:27:05.468Z,46.40
2022-10-23T18:30:11.494Z,46.40
2022-10-23T18:33:14.516Z,46.50
2022-10-23T18:36:32.542Z,46.40
2022-10-23T18:39:44.568Z,46.40
2022-10-23T18:42:50.598Z,46.50
2022-10-23T18:46:02.619Z,46.50
2022-10-23T18:49:08.651Z,46.40
2022-10-23T18:52:24.665Z,46.40
2022-10-23T18:55:24.753Z,46.40
2022-10-23T18:58:32.727Z,46.30
2022-10-23T19:01:42.862Z,46.40
2022-10-23T19:04:50.780Z,46.40
2022-10-23T19:08:08.810Z,47.00
2022-10-23T19:11:18.843Z,46.50
2022-10-23T19:14:44.866Z,46.50
2022-10-23T19:18:11.947Z,46.50
2022-10-23T19:30:05.848Z,46.50
2022-10-23T19:33:54.787Z,46.50
2022-10-23T19:37:30.012Z,46.50
2022-10-23T19:40:53.939Z,46.50
2022-10-23T19:44:23.972Z,46.50
2022-10-23T19:47:47.695Z,46.50
2022-10-23T19:50:54.043Z,46.50
2022-10-23T19:54:05.764Z,46.60
2022-10-23T19:57:06.101Z,46.60
2022-10-23T20:00:17.827Z,46.60
2022-10-23T20:03:24.167Z,46.50
2022-10-23T20:06:35.886Z,46.50
2022-10-23T20:09:36.225Z,46.40
2022-10-23T20:12:56.539Z,46.50
2022-10-23T20:16:00.284Z,46.40
2022-10-23T20:19:12.072Z,46.40
2022-10-23T20:22:12.345Z,46.50
2022-10-23T20:25:30.075Z,46.50
2022-10-23T20:28:36.413Z,46.50
2022-10-23T20:31:48.141Z,46.50
2022-10-23T20:34:54.475Z,46.50
2022-10-23T20:38:06.194Z,46.60
2022-10-23T20:41:18.229Z,46.70
2022-10-23T20:44:30.256Z,46.50
2022-10-23T20:47:30.274Z,46.60
2022-10-23T20:50:42.305Z,46.60
2022-10-23T20:53:48.328Z,46.60
2022-10-23T20:56:54.354Z,46.50
2022-10-23T21:00:00.381Z,46.50
2022-10-23T21:03:06.412Z,46.60
2022-10-23T21:06:18.442Z,46.60
2022-10-23T21:09:37.253Z,46.70
2022-10-23T21:12:48.804Z,46.70
2022-10-23T21:16:07.308Z,46.70
2022-10-23T21:19:42.866Z,46.60
2022-10-23T21:23:06.595Z,46.70
2022-10-23T21:26:12.935Z,46.70
2022-10-23T21:29:30.972Z,46.60
2022-10-23T21:32:49.000Z,46.70
2022-10-23T21:36:11.819Z,46.70
2022-10-23T21:39:31.072Z,46.70
2022-10-23T21:42:36.789Z,46.70
2022-10-23T21:45:43.127Z,46.70
2022-10-23T21:48:48.847Z,46.70
2022-10-23T21:51:55.362Z,46.70
2022-10-23T21:55:06.911Z,46.80
2022-10-23T21:58:13.254Z,46.70
2022-10-23T22:01:19.048Z,46.70
2022-10-23T22:04:25.314Z,46.70
2022-10-23T22:07:31.039Z,46.70
2022-10-23T22:10:43.371Z,46.70
2022-10-23T22:13:49.088Z,46.70
2022-10-23T22:16:55.423Z,46.70
2022-10-23T22:20:01.140Z,46.70
2022-10-23T22:23:13.167Z,46.70
2022-10-23T22:26:25.196Z,46.70
2022-10-23T22:29:31.530Z,46.70
2022-10-23T22:32:37.253Z,47.30
2022-10-23T22:35:43.582Z,46.70
2022-10-23T22:38:49.301Z,46.70
2022-10-23T22:42:01.636Z,46.70
2022-10-23T22:45:07.354Z,46.70
2022-10-23T22:48:13.380Z,46.70
2022-10-23T22:51:19.426Z,46.70
2022-10-23T22:54:25.761Z,46.70
2022-10-23T22:57:37.474Z,46.70
2022-10-23T23:00:43.829Z,46.70
2022-10-23T23:03:49.531Z,46.70
2022-10-23T23:06:55.867Z,46.70
2022-10-23T23:10:01.587Z,46.70
2022-10-23T23:13:13.929Z,46.70
2022-10-23T23:16:19.648Z,46.70
2022-10-23T23:19:25.987Z,46.70
2022-10-23T23:22:31.713Z,46.70
2022-10-23T23:25:38.047Z,46.70
2022-10-23T23:28:50.571Z,46.70
2022-10-23T23:31:56.598Z,46.70
2022-10-23T23:35:03.863Z,46.60
2022-10-23T23:38:21.888Z,46.70
2022-10-23T23:41:37.930Z,46.70
2022-10-23T23:45:10.068Z,46.60
2022-10-23T23:48:44.780Z,46.60
2022-10-23T23:52:14.811Z,46.60
2022-10-23T23:55:44.860Z,46.60
2022-10-23T23:59:08.873Z,46.60
